Time;durP1;ratioP1;P1;durP2;ratioP2;P2;SDS_P1;SDS_P2;PMS_P1;PMS_P2;Temp;Humidity;BMP_temperature;BMP_pressure;BME280_temperature;BME280_humidity;BME280_pressure;Samples;Min_cycle;Max_cycle;Signal;HPM_P1;HPM_P2
2022/03/30 00:01:19;;;;;;;70.22;33.65;;;;;;;2.70;70.36;99222.22;1776711;80;25129;-68
2022/03/30 00:03:45;;;;;;;71.50;33.28;;;;;;;2.66;70.51;99223.87;1776915;80;26377;-70
2022/03/30 00:06:11;;;;;;;74.32;35.48;;;;;;;2.63;70.55;99227.89;1776593;80;25457;-68
2022/03/30 00:08:38;;;;;;;69.45;33.78;;;;;;;2.60;71.16;99230.57;1776575;80;28039;-68
2022/03/30 00:11:04;;;;;;;66.77;34.75;;;;;;;2.58;71.25;99228.73;1776521;80;25547;-68
2022/03/30 00:13:30;;;;;;;69.58;34.80;;;;;;;2.56;71.63;99228.77;1776598;80;25577;-69
2022/03/30 00:15:57;;;;;;;68.83;35.23;;;;;;;2.54;71.65;99226.38;1776620;80;25613;-69
2022/03/30 00:18:23;;;;;;;65.78;32.53;;;;;;;2.53;71.89;99223.44;1776669;80;25374;-68
2022/03/30 00:20:49;;;;;;;63.95;33.25;;;;;;;2.53;71.67;99227.98;1776539;80;27534;-68
2022/03/30 00:23:16;;;;;;;62.25;31.87;;;;;;;2.48;71.41;99220.03;1776441;80;25852;-68
2022/03/30 00:25:42;;;;;;;70.35;33.70;;;;;;;2.46;71.25;99224.31;1776509;80;25555;-68
2022/03/30 00:28:09;;;;;;;63.83;33.13;;;;;;;2.43;70.90;99220.86;1776579;80;26409;-68
2022/03/30 00:30:36;;;;;;;70.00;36.10;;;;;;;2.41;70.88;99219.80;1776639;80;25610;-69
2022/03/30 00:33:02;;;;;;;74.62;36.25;;;;;;;2.37;71.72;99216.66;1776580;80;27539;-68
2022/03/30 00:35:29;;;;;;;76.55;36.17;;;;;;;2.34;72.08;99218.01;1776401;80;27324;-69
2022/03/30 00:37:56;;;;;;;72.00;35.38;;;;;;;2.34;72.39;99220.67;1776550;80;25454;-67
2022/03/30 00:40:22;;;;;;;70.70;35.55;;;;;;;2.30;72.59;99213.50;1776488;80;25474;-68
2022/03/30 00:42:49;;;;;;;65.57;33.70;;;;;;;2.28;73.04;99216.45;1776536;80;25594;-68
2022/03/30 00:45:21;;;;;;;77.45;36.98;;;;;;;2.23;72.91;99209.82;1776530;80;27156;-68
2022/03/30 00:47:48;;;;;;;70.42;35.52;;;;;;;2.21;73.01;99209.31;1776428;80;25605;-68
2022/03/30 00:50:18;;;;;;;75.55;35.08;;;;;;;2.21;73.45;99214.64;1776510;80;25557;-68
2022/03/30 00:52:47;;;;;;;77.67;37.60;;;;;;;2.19;73.38;99210.13;1776998;80;25593;-68
2022/03/30 00:55:17;;;;;;;74.55;37.05;;;;;;;2.18;73.62;99214.69;1779004;80;25481;-69
2022/03/30 00:57:46;;;;;;;84.95;38.90;;;;;;;2.17;74.24;99210.95;1778992;80;27446;-69
2022/03/30 01:00:15;;;;;;;82.33;38.17;;;;;;;2.14;74.32;99206.17;1779016;80;25460;-69
2022/03/30 01:02:46;;;;;;;73.78;36.70;;;;;;;2.13;74.46;99210.72;1779077;80;25586;-69
2022/03/30 01:05:14;;;;;;;77.37;37.88;;;;;;;2.12;74.43;99209.11;1778955;80;25480;-69
2022/03/30 01:07:40;;;;;;;77.55;36.68;;;;;;;2.14;74.66;99208.84;1779005;80;25394;-69
2022/03/30 01:10:10;;;;;;;75.08;37.50;;;;;;;2.12;75.09;99203.00;1778943;80;27577;-69
2022/03/30 01:12:41;;;;;;;77.37;38.30;;;;;;;2.12;75.27;99206.45;1778953;80;25599;-69
2022/03/30 01:15:12;;;;;;;82.95;37.55;;;;;;;2.12;75.02;99207.00;1779183;80;25481;-69
2022/03/30 01:17:40;;;;;;;85.70;40.65;;;;;;;2.10;75.19;99204.60;1779135;80;26170;-69
2022/03/30 01:20:10;;;;;;;76.60;38.37;;;;;;;2.11;75.31;99206.72;1779399;80;25609;-69
2022/03/30 01:22:38;;;;;;;72.87;38.05;;;;;;;2.10;75.50;99207.81;1755127;80;27540;-69
2022/03/30 01:25:06;;;;;;;79.45;39.03;;;;;;;2.10;75.64;99204.60;1779059;80;25615;-69
2022/03/30 01:27:33;;;;;;;76.55;37.93;;;;;;;2.11;75.69;99201.39;1779221;80;25386;-69
2022/03/30 01:32:55;;;;;;;76.67;36.40;;;;;;;2.10;75.38;99195.27;1779104;80;25367;-68
2022/03/30 01:35:22;;;;;;;78.25;36.60;;;;;;;2.09;75.09;99196.33;1779128;80;27547;-68
2022/03/30 01:37:49;;;;;;;72.75;35.40;;;;;;;2.07;74.84;99191.81;1778990;80;25568;-68
2022/03/30 01:40:16;;;;;;;80.92;38.48;;;;;;;2.06;74.87;99198.25;1779148;80;25609;-68
2022/03/30 01:42:42;;;;;;;86.85;38.53;;;;;;;2.03;75.79;99188.92;1779109;80;26386;-68
2022/03/30 01:45:11;;;;;;;75.78;37.95;;;;;;;2.00;75.73;99188.13;1779199;80;25440;-68
2022/03/30 01:47:41;;;;;;;81.00;40.33;;;;;;;2.01;75.97;99186.25;1755385;80;27460;-68
2022/03/30 01:50:11;;;;;;;88.90;40.65;;;;;;;2.01;75.92;99184.92;1779048;80;25578;-68
2022/03/30 01:52:37;;;;;;;86.00;39.90;;;;;;;1.99;75.96;99181.74;1779122;80;25487;-68
2022/03/30 01:55:06;;;;;;;83.75;39.63;;;;;;;1.98;75.85;99181.50;1779170;80;25579;-68
2022/03/30 01:57:32;;;;;;;81.63;41.37;;;;;;;1.94;76.10;99181.27;1779117;80;25602;-68
2022/03/30 01:59:58;;;;;;;80.75;39.35;;;;;;;1.94;76.25;99179.11;1779096;80;27468;-68
2022/03/30 02:02:25;;;;;;;85.85;40.52;;;;;;;1.95;76.40;99180.17;1778997;80;25769;-68
2022/03/30 02:04:51;;;;;;;80.85;38.30;;;;;;;1.95;76.99;99176.72;1779101;80;25531;-68
2022/03/30 02:07:20;;;;;;;85.10;40.03;;;;;;;1.93;76.41;99175.66;1779050;80;25712;-68
2022/03/30 02:09:48;;;;;;;80.20;40.25;;;;;;;1.93;76.31;99174.88;1779229;80;25436;-69
2022/03/30 02:12:15;;;;;;;86.55;40.78;;;;;;;1.91;76.59;99169.81;1779107;80;27497;-68
2022/03/30 02:14:41;;;;;;;77.65;37.70;;;;;;;1.90;76.89;99167.42;1778983;80;25822;-69
2022/03/30 02:17:07;;;;;;;79.55;38.73;;;;;;;1.90;76.74;99170.09;1779146;80;25468;-68
2022/03/30 02:19:34;;;;;;;80.65;38.02;;;;;;;1.89;76.49;99164.48;1779028;80;25510;-68
2022/03/30 02:22:00;;;;;;;80.95;38.23;;;;;;;1.89;76.71;99161.82;1779093;80;25543;-68
2022/03/30 02:24:26;;;;;;;76.45;39.05;;;;;;;1.87;76.46;99158.09;1779171;80;28299;-69
2022/03/30 02:26:53;;;;;;;82.33;37.83;;;;;;;1.88;76.46;99154.91;1778986;80;25691;-69
2022/03/30 02:29:19;;;;;;;81.50;39.38;;;;;;;1.85;76.38;99157.04;1779091;80;25658;-69
2022/03/30 02:31:47;;;;;;;77.15;39.40;;;;;;;1.82;76.11;99150.14;1779048;80;25705;-69
2022/03/30 02:34:15;;;;;;;79.97;38.50;;;;;;;1.81;76.55;99148.02;1779092;80;25488;-69
2022/03/30 02:36:43;;;;;;;93.10;41.85;;;;;;;1.80;76.99;99142.95;1779090;80;28029;-69
2022/03/30 02:39:11;;;;;;;84.28;39.25;;;;;;;1.77;76.89;99143.51;1778998;80;25587;-69
2022/03/30 02:41:38;;;;;;;85.72;39.18;;;;;;;1.75;76.91;99143.00;1779049;80;25402;-69
2022/03/30 02:44:05;;;;;;;74.00;36.77;;;;;;;1.73;77.06;99142.48;1779019;80;27739;-69
2022/03/30 02:46:31;;;;;;;78.65;40.92;;;;;;;1.68;76.92;99137.44;1779109;80;25408;-69
2022/03/30 02:48:57;;;;;;;85.65;38.73;;;;;;;1.65;76.98;99142.02;1779066;80;27568;-69
2022/03/30 02:51:27;;;;;;;83.33;40.45;;;;;;;1.64;77.16;99139.63;1779027;80;25614;-69
2022/03/30 02:53:52;;;;;;;84.75;41.73;;;;;;;1.61;77.50;99137.50;1771292;80;25722;-69
2022/03/30 02:56:18;;;;;;;81.53;38.28;;;;;;;1.57;77.51;99137.27;1758676;80;25569;-69
2022/03/30 02:58:44;;;;;;;82.17;40.33;;;;;;;1.55;77.54;99143.42;1758675;81;25393;-69
2022/03/30 03:01:11;;;;;;;87.00;40.10;;;;;;;1.53;77.66;99142.88;1758736;81;27473;-69
2022/03/30 03:03:37;;;;;;;93.03;41.08;;;;;;;1.51;77.56;99135.70;1758550;80;25607;-68
2022/03/30 03:06:03;;;;;;;83.00;42.25;;;;;;;1.49;78.01;99134.64;1758747;80;25374;-69
2022/03/30 03:08:30;;;;;;;85.28;40.75;;;;;;;1.47;78.14;99132.80;1758590;81;25380;-69
2022/03/30 03:10:57;;;;;;;89.92;42.62;;;;;;;1.45;78.27;99130.95;1758729;81;25622;-68
2022/03/30 03:13:25;;;;;;;81.65;39.92;;;;;;;1.43;78.16;99123.77;1758595;81;27560;-68
2022/03/30 03:15:52;;;;;;;90.83;40.85;;;;;;;1.44;78.22;99136.55;1758582;80;25797;-68
2022/03/30 03:18:19;;;;;;;82.27;39.53;;;;;;;1.41;78.09;99128.55;1758626;80;25527;-68
2022/03/30 03:20:47;;;;;;;85.25;40.23;;;;;;;1.39;78.02;99129.92;1758597;81;25515;-68
2022/03/30 03:23:15;;;;;;;83.45;40.88;;;;;;;1.37;78.22;99130.19;1758662;80;25530;-68
2022/03/30 03:25:44;;;;;;;87.37;39.92;;;;;;;1.33;78.09;99133.16;1758626;80;27535;-68
2022/03/30 03:28:14;;;;;;;83.10;38.48;;;;;;;1.29;77.88;99136.09;1758531;80;25683;-68
2022/03/30 03:30:42;;;;;;;83.70;38.92;;;;;;;1.24;78.09;99130.28;1758634;81;25551;-68
2022/03/30 03:33:10;;;;;;;87.10;42.38;;;;;;;1.21;78.55;99128.68;1758570;80;25626;-67
2022/03/30 03:35:37;;;;;;;85.70;40.40;;;;;;;1.17;78.69;99134.31;1758620;80;25448;-69
2022/03/30 03:38:06;;;;;;;83.60;42.38;;;;;;;1.13;78.50;99124.74;1758698;81;27468;-69
2022/03/30 03:40:32;;;;;;;82.85;39.48;;;;;;;1.07;78.51;99125.31;1758522;81;25833;-69
2022/03/30 03:43:00;;;;;;;80.80;39.53;;;;;;;1.03;78.56;99124.25;1758626;80;25632;-69
2022/03/30 03:45:27;;;;;;;87.80;41.45;;;;;;;1.00;78.74;99127.46;1758625;80;26008;-69
2022/03/30 03:47:54;;;;;;;92.92;42.90;;;;;;;0.96;78.91;99117.65;1758643;81;25445;-69
2022/03/30 03:50:21;;;;;;;95.80;43.02;;;;;;;0.92;78.98;99114.20;1758588;81;28046;-69
2022/03/30 03:52:48;;;;;;;85.53;41.30;;;;;;;0.90;79.21;99116.34;1758504;80;25610;-69
2022/03/30 03:55:15;;;;;;;86.30;41.92;;;;;;;0.90;79.32;99115.01;1774441;79;25414;-69
2022/03/30 03:57:42;;;;;;;89.20;42.78;;;;;;;0.90;79.41;99123.52;1778997;80;26014;-69
2022/03/30 04:00:12;;;;;;;88.58;42.13;;;;;;;0.88;79.47;99130.44;1779079;80;25385;-69
2022/03/30 04:02:40;;;;;;;87.62;41.83;;;;;;;0.86;79.54;99131.25;1779054;80;28225;-69
2022/03/30 04:05:09;;;;;;;90.32;43.73;;;;;;;0.85;79.62;99124.87;1778947;80;25531;-69
2022/03/30 04:07:39;;;;;;;86.47;42.13;;;;;;;0.81;79.80;99127.83;1778998;80;25429;-67
2022/03/30 04:10:10;;;;;;;90.42;42.53;;;;;;;0.79;79.67;99125.98;1778961;80;25626;-69
2022/03/30 04:12:39;;;;;;;90.22;41.15;;;;;;;0.78;79.96;99121.70;1779092;80;25393;-69
2022/03/30 04:15:09;;;;;;;91.97;42.53;;;;;;;0.76;79.88;99122.52;1779284;80;27494;-69
2022/03/30 04:17:44;;;;;;;82.12;41.05;;;;;;;0.72;80.09;99115.08;1779021;80;25437;-69
2022/03/30 04:20:13;;;;;;;95.55;42.70;;;;;;;0.70;80.22;99119.88;1754751;80;25502;-69
2022/03/30 04:22:41;;;;;;;91.47;43.80;;;;;;;0.67;80.55;99123.08;1779100;80;27651;-69
2022/03/30 04:25:08;;;;;;;82.62;40.75;;;;;;;0.66;80.64;99116.70;1779017;80;25571;-69
2022/03/30 04:27:35;;;;;;;91.92;44.25;;;;;;;0.63;80.60;99124.70;1779052;80;27478;-69
2022/03/30 04:30:04;;;;;;;92.15;42.95;;;;;;;0.62;80.65;99119.65;1778898;80;25552;-69
2022/03/30 04:32:31;;;;;;;92.72;42.35;;;;;;;0.59;80.96;99114.86;1779237;80;25610;-69
2022/03/30 04:34:57;;;;;;;88.95;42.98;;;;;;;0.59;80.96;99114.86;1779046;80;26297;-69
2022/03/30 04:37:23;;;;;;;85.80;41.23;;;;;;;0.58;80.80;99118.06;1779053;80;25616;-68
2022/03/30 04:39:49;;;;;;;95.05;41.05;;;;;;;0.56;80.73;99113.53;1779090;80;25939;-68
2022/03/30 04:42:16;;;;;;;88.33;41.73;;;;;;;0.56;80.57;99112.20;1779026;80;25381;-70
2022/03/30 04:44:42;;;;;;;85.55;41.50;;;;;;;0.57;80.66;99121.00;1779033;80;25402;-70
2022/03/30 04:47:08;;;;;;;94.83;42.43;;;;;;;0.58;80.60;99127.89;1778873;80;25545;-70
2022/03/30 04:49:34;;;;;;;87.22;41.73;;;;;;;0.59;80.56;99119.64;1779065;80;25405;-70
2022/03/30 04:52:01;;;;;;;83.87;39.48;;;;;;;0.60;80.85;99119.92;1779097;80;28280;-70
2022/03/30 04:54:27;;;;;;;88.97;40.78;;;;;;;0.58;80.61;99123.91;1778186;80;25607;-70
2022/03/30 04:56:54;;;;;;;84.67;40.70;;;;;;;0.56;80.60;99120.18;1776595;80;25552;-70
2022/03/30 04:59:20;;;;;;;93.07;41.95;;;;;;;0.57;80.91;99127.65;1776452;80;26360;-70
2022/03/30 05:01:46;;;;;;;86.10;39.10;;;;;;;0.57;81.01;99124.98;1776502;80;25646;-70
2022/03/30 05:04:12;;;;;;;84.97;41.18;;;;;;;0.57;81.50;99124.45;1776487;80;27460;-71
2022/03/30 05:06:39;;;;;;;90.85;42.30;;;;;;;0.57;81.45;99117.00;1776391;80;25524;-71
2022/03/30 05:09:05;;;;;;;91.30;42.27;;;;;;;0.60;81.45;99117.80;1776506;80;25364;-71
2022/03/30 05:11:32;;;;;;;91.45;41.15;;;;;;;0.63;81.43;99122.04;1776455;80;25541;-71
2022/03/30 05:13:58;;;;;;;87.80;41.92;;;;;;;0.67;81.77;99119.63;1776519;80;25557;-70
2022/03/30 05:16:27;;;;;;;89.13;44.18;;;;;;;0.67;81.74;99123.63;1776497;80;28145;-70
2022/03/30 05:18:53;;;;;;;87.67;42.80;;;;;;;0.71;81.57;99128.11;1776454;80;25450;-68
2022/03/30 05:21:20;;;;;;;92.33;41.90;;;;;;;0.76;82.24;99129.17;1754538;80;25644;-68
2022/03/30 05:23:46;;;;;;;90.57;42.88;;;;;;;0.76;81.67;99129.96;1776499;80;25551;-69
2022/03/30 05:26:12;;;;;;;93.78;44.35;;;;;;;0.80;81.69;99130.21;1776474;80;25396;-70
2022/03/30 05:28:40;;;;;;;95.12;44.23;;;;;;;0.83;81.80;99135.00;1776415;80;27487;-70
2022/03/30 05:31:06;;;;;;;92.92;43.33;;;;;;;0.89;82.15;99139.24;1776351;80;27283;-71
2022/03/30 05:33:34;;;;;;;86.37;41.53;;;;;;;0.93;82.11;99141.06;1776471;80;25460;-70
2022/03/30 05:36:00;;;;;;;94.62;44.65;;;;;;;0.99;82.11;99144.52;1776428;80;26203;-70
2022/03/30 05:38:27;;;;;;;94.10;43.95;;;;;;;1.08;82.20;99143.41;1776515;80;25574;-70
2022/03/30 05:40:54;;;;;;;89.07;45.30;;;;;;;1.19;82.54;99140.97;1776514;80;27455;-71
2022/03/30 05:43:21;;;;;;;96.00;43.65;;;;;;;1.29;82.60;99148.09;1776496;80;25444;-70
2022/03/30 05:45:48;;;;;;;90.00;44.73;;;;;;;1.41;82.53;99151.75;1776651;80;25395;-69
2022/03/30 05:48:15;;;;;;;92.88;44.77;;;;;;;1.53;82.69;99152.75;1776486;80;26150;-69
2022/03/30 05:50:42;;;;;;;95.25;46.02;;;;;;;1.66;82.63;99150.80;1776549;80;25595;-70
2022/03/30 05:53:08;;;;;;;95.25;45.73;;;;;;;1.77;82.53;99148.33;1776533;80;27447;-70
2022/03/30 05:55:34;;;;;;;95.10;45.67;;;;;;;1.89;82.55;99149.30;1765291;80;25722;-70
2022/03/30 05:58:02;;;;;;;91.70;44.33;;;;;;;1.99;82.52;99145.73;1758323;81;25630;-70
2022/03/30 06:00:28;;;;;;;89.03;43.60;;;;;;;2.12;82.40;99146.42;1758437;81;25668;-70
2022/03/30 06:02:55;;;;;;;94.75;44.60;;;;;;;2.24;82.31;99142.84;1759307;81;25465;-71
2022/03/30 06:05:21;;;;;;;96.97;43.70;;;;;;;2.40;82.19;99140.83;1759163;81;27462;-71
2022/03/30 06:07:48;;;;;;;95.30;44.90;;;;;;;2.56;82.31;99150.80;1758771;81;25535;-71
2022/03/30 06:10:15;;;;;;;92.57;45.00;;;;;;;2.67;81.82;99148.02;1758742;80;25618;-71
2022/03/30 06:12:41;;;;;;;88.45;45.73;;;;;;;2.85;81.80;99145.16;1758685;80;25549;-70
2022/03/30 06:15:09;;;;;;;91.87;44.77;;;;;;;2.98;81.35;99141.24;1758765;80;25605;-70
2022/03/30 06:17:35;;;;;;;90.55;44.42;;;;;;;3.12;81.13;99145.34;1758730;80;27423;-70
2022/03/30 06:20:03;;;;;;;89.22;45.23;;;;;;;3.31;81.26;99151.24;1758631;81;25639;-70
2022/03/30 06:22:30;;;;;;;84.05;43.75;;;;;;;3.49;80.96;99143.77;1758738;80;25620;-70
2022/03/30 06:24:59;;;;;;;83.30;41.37;;;;;;;3.67;80.16;99156.86;1758679;81;26081;-70
2022/03/30 06:27:25;;;;;;;86.35;44.23;;;;;;;3.77;79.57;99141.20;1758742;81;25555;-70
2022/03/30 06:29:52;;;;;;;84.17;42.95;;;;;;;3.95;79.76;99147.63;1758653;80;27438;-70
2022/03/30 06:32:19;;;;;;;80.87;42.50;;;;;;;4.19;79.56;99141.31;1758454;80;25624;-70
2022/03/30 06:34:45;;;;;;;78.65;42.65;;;;;;;4.40;78.77;99143.89;1759006;81;25528;-71
2022/03/30 06:37:12;;;;;;;83.35;42.78;;;;;;;4.59;77.65;99145.70;1758666;81;25458;-71
2022/03/30 06:39:38;;;;;;;85.70;44.45;;;;;;;4.79;77.47;99135.92;1758809;81;25503;-71
2022/03/30 06:42:06;;;;;;;81.37;43.10;;;;;;;5.02;77.66;99136.00;1758753;81;27522;-70
2022/03/30 06:44:32;;;;;;;81.50;41.08;;;;;;;5.32;77.04;99142.60;1758651;81;25446;-70
2022/03/30 06:46:59;;;;;;;76.65;41.35;;;;;;;5.56;75.56;99138.30;1758729;81;25449;-70
2022/03/30 06:49:25;;;;;;;75.65;40.70;;;;;;;5.71;74.45;99141.75;1758714;81;26142;-71
2022/03/30 06:51:52;;;;;;;86.28;42.58;;;;;;;5.95;75.39;99148.93;1758784;81;25159;-70
2022/03/30 06:54:19;;;;;;;79.77;41.00;;;;;;;6.24;74.69;99146.38;1758703;81;27581;-70
2022/03/30 06:56:46;;;;;;;78.00;42.30;;;;;;;6.54;73.59;99147.47;1778236;80;25681;-71
2022/03/30 06:59:13;;;;;;;76.57;41.00;;;;;;;6.85;73.22;99150.66;1779122;80;25437;-71
2022/03/30 07:01:40;;;;;;;74.80;40.98;;;;;;;7.13;71.70;99141.56;1779128;80;25552;-71
2022/03/30 07:04:07;;;;;;;75.67;40.95;;;;;;;7.35;70.63;99147.36;1779422;80;25373;-71
2022/03/30 07:06:33;;;;;;;72.58;38.88;;;;;;;7.63;70.25;99147.87;1779323;80;27610;-71
2022/03/30 07:11:44;;;;;;;68.90;36.80;;;;;;;8.32;68.97;99147.52;1779155;80;25381;-71
2022/03/30 07:14:11;;;;;;;70.47;36.68;;;;;;;8.70;68.13;99147.58;1779025;80;26013;-70
2022/03/30 07:16:37;;;;;;;66.10;35.80;;;;;;;9.10;68.70;99141.80;1779156;80;25392;-70
2022/03/30 07:19:04;;;;;;;68.40;33.08;;;;;;;9.56;68.05;99145.23;1779112;80;28013;-70
2022/03/30 07:21:30;;;;;;;50.98;26.42;;;;;;;9.95;65.52;99145.84;1779018;80;25646;-70
2022/03/30 07:23:57;;;;;;;64.35;33.02;;;;;;;10.26;62.51;99145.36;1779109;80;25449;-70
2022/03/30 07:26:23;;;;;;;63.33;32.05;;;;;;;10.49;62.74;99144.44;1779105;80;25556;-70
2022/03/30 07:28:49;;;;;;;51.30;26.68;;;;;;;10.86;61.70;99149.84;1779177;80;25642;-70
2022/03/30 07:31:16;;;;;;;43.50;24.27;;;;;;;11.31;62.36;99150.84;1779006;80;27464;-70
2022/03/30 07:33:42;;;;;;;45.48;24.87;;;;;;;11.70;59.76;99154.67;1779422;80;25519;-69
2022/03/30 07:36:09;;;;;;;51.25;25.45;;;;;;;11.80;57.74;99157.47;1779437;80;25547;-69
2022/03/30 07:38:36;;;;;;;50.12;23.45;;;;;;;12.11;58.11;99160.08;1779105;80;25580;-70
2022/03/30 07:41:02;;;;;;;43.68;22.25;;;;;;;12.56;56.27;99164.31;1779131;80;25606;-70
2022/03/30 07:43:29;;;;;;;45.92;24.57;;;;;;;13.02;57.07;99163.86;1779083;80;27433;-70
2022/03/30 07:45:55;;;;;;;48.80;24.75;;;;;;;13.39;54.92;99161.61;1778995;80;25524;-70
2022/03/30 07:48:22;;;;;;;39.50;21.57;;;;;;;13.65;53.89;99162.92;1779106;80;25584;-70
2022/03/30 07:50:48;;;;;;;38.75;20.02;;;;;;;13.93;52.39;99158.64;1779048;80;25540;-70
2022/03/30 07:53:15;;;;;;;43.08;22.70;;;;;;;14.16;51.74;99161.39;1779106;80;25630;-70
2022/03/30 07:55:41;;;;;;;40.15;23.85;;;;;;;14.42;51.05;99165.38;1778988;80;27477;-70
2022/03/30 07:58:08;;;;;;;43.52;23.25;;;;;;;14.53;50.42;99160.11;1779009;80;25421;-71
2022/03/30 08:00:36;;;;;;;41.37;19.67;;;;;;;14.83;49.22;99160.80;1779114;80;25398;-71
2022/03/30 08:03:03;;;;;;;39.80;20.50;;;;;;;15.45;49.29;99165.99;1696169;84;25767;-70
2022/03/30 08:05:30;;;;;;;35.40;19.62;;;;;;;16.07;48.00;99160.13;1696515;84;25462;-70
2022/03/30 08:07:56;;;;;;;32.45;17.75;;;;;;;16.61;46.39;99160.66;1696066;84;27513;-70
2022/03/30 08:10:23;;;;;;;34.30;17.60;;;;;;;17.02;44.97;99170.16;1696030;84;25438;-70
2022/03/30 08:12:49;;;;;;;28.00;15.15;;;;;;;17.23;43.36;99172.27;1672735;84;25586;-70
2022/03/30 08:15:16;;;;;;;29.10;15.30;;;;;;;17.57;42.45;99181.64;1696036;84;25602;-71
2022/03/30 08:17:44;;;;;;;30.70;15.53;;;;;;;17.85;41.29;99180.19;1696090;84;25431;-71
2022/03/30 08:22:25;;;;;;;30.65;15.80;;;;;;;18.14;41.15;99178.36;1696079;84;27475;-71
2022/03/30 08:22:40;;;;;;;26.97;14.83;;;;;;;18.45;40.86;99173.33;1692467;84;25500;-71
2022/03/30 08:25:09;;;;;;;27.98;14.30;;;;;;;18.85;38.80;99176.31;1696052;84;25619;-67
2022/03/30 08:27:35;;;;;;;23.42;13.75;;;;;;;19.01;39.25;99180.61;1695733;84;25659;-67
2022/03/30 08:30:05;;;;;;;24.47;12.80;;;;;;;19.13;39.06;99182.16;1695818;84;25769;-67
2022/03/30 08:32:33;;;;;;;18.12;9.68;;;;;;;18.87;38.41;99183.38;1695780;84;27549;-67
2022/03/30 08:35:19;;;;;;;21.95;8.98;;;;;;;18.78;36.89;99184.52;1768742;80;26179;-69
2022/03/30 08:37:46;;;;;;;22.32;9.75;;;;;;;18.50;36.49;99177.05;1741371;82;25805;-68
2022/03/30 08:40:12;;;;;;;19.17;9.68;;;;;;;18.60;36.60;99172.16;1741246;82;25614;-67
2022/03/30 08:42:41;;;;;;;23.83;11.40;;;;;;;18.63;36.26;99168.66;1741310;82;25705;-68
2022/03/30 08:45:09;;;;;;;24.27;11.93;;;;;;;18.81;36.04;99176.08;1741302;82;27544;-68
2022/03/30 08:47:36;;;;;;;22.32;10.25;;;;;;;19.08;35.83;99173.74;1741345;82;25557;-69
2022/03/30 08:50:05;;;;;;;18.80;8.45;;;;;;;19.41;35.35;99173.88;1738659;81;25587;-68
2022/03/30 08:52:32;;;;;;;19.92;9.48;;;;;;;19.44;34.38;99175.03;1741341;82;26090;-69
2022/03/30 08:55:00;;;;;;;25.17;9.93;;;;;;;19.34;33.28;99173.91;1741335;82;25611;-69
2022/03/30 08:57:28;;;;;;;20.27;8.65;;;;;;;19.11;33.06;99175.70;1741203;82;27619;-68
2022/03/30 09:00:11;;;;;;;15.88;8.48;;;;;;;18.71;32.81;99168.08;1741200;82;25754;-68
2022/03/30 09:02:41;;;;;;;17.40;9.00;;;;;;;18.58;33.04;99177.85;1741324;82;25631;-68
2022/03/30 09:05:21;;;;;;;18.12;8.85;;;;;;;18.62;32.67;99171.19;1741457;82;25699;-68
2022/03/30 09:07:56;;;;;;;18.35;8.78;;;;;;;18.47;31.26;99177.82;1741438;82;25704;-69
2022/03/30 09:10:27;;;;;;;18.05;9.00;;;;;;;18.55;33.42;99179.40;1755513;81;27456;-67
2022/03/30 09:12:56;;;;;;;18.55;9.20;;;;;;;18.46;31.57;99174.31;1741156;82;25638;-67
2022/03/30 09:15:23;;;;;;;19.32;8.28;;;;;;;18.21;32.64;99172.12;1741176;82;25457;-67
2022/03/30 09:17:59;;;;;;;24.98;9.25;;;;;;;18.01;31.77;99173.03;1741258;82;25542;-67
2022/03/30 09:20:26;;;;;;;20.68;10.23;;;;;;;17.85;31.86;99165.92;1741250;82;25702;-67
2022/03/30 09:22:56;;;;;;;26.40;11.57;;;;;;;17.61;32.13;99172.86;1741320;82;27454;-67
2022/03/30 09:25:31;;;;;;;15.63;8.85;;;;;;;17.67;32.07;99171.34;1741076;81;25417;-68
2022/03/30 09:28:00;;;;;;;18.73;8.95;;;;;;;17.94;32.64;99171.06;1741358;82;25422;-67
2022/03/30 09:30:31;;;;;;;18.00;9.08;;;;;;;17.80;31.89;99173.13;1741364;82;25620;-69
2022/03/30 09:32:59;;;;;;;20.37;9.40;;;;;;;17.39;32.04;99169.83;1741477;82;25499;-68
2022/03/30 09:35:38;;;;;;;14.83;8.23;;;;;;;16.80;31.98;99175.45;1741466;82;27462;-68
2022/03/30 09:38:11;;;;;;;16.65;7.97;;;;;;;16.17;31.61;99170.37;1710587;83;25746;-69
2022/03/30 09:40:48;;;;;;;16.67;7.58;;;;;;;15.46;31.91;99163.45;1710611;83;25715;-68
2022/03/30 09:43:29;;;;;;;16.12;8.55;;;;;;;14.93;32.59;99159.62;1710547;83;27678;-68
2022/03/30 09:46:12;;;;;;;16.60;7.80;;;;;;;14.58;33.23;99157.08;1710644;83;25694;-69
2022/03/30 09:48:56;;;;;;;14.30;7.08;;;;;;;14.43;33.30;99154.69;1678863;85;27540;-68
2022/03/30 09:51:24;;;;;;;18.30;7.00;;;;;;;14.91;33.48;99155.68;1678482;85;26133;-68
2022/03/30 09:53:51;;;;;;;16.52;6.62;;;;;;;14.81;33.10;99157.08;1678791;84;25569;-68
2022/03/30 09:56:22;;;;;;;15.50;6.90;;;;;;;14.44;32.84;99164.44;1678918;84;26489;-68
2022/03/30 09:59:01;;;;;;;15.35;7.17;;;;;;;13.97;33.02;99154.63;1678621;84;25800;-68
2022/03/30 10:01:32;;;;;;;15.18;7.50;;;;;;;13.74;33.50;99159.44;1678940;85;28212;-68
2022/03/30 10:04:00;;;;;;;16.42;7.12;;;;;;;13.47;33.27;99159.85;1678473;84;26063;-68
2022/03/30 10:06:33;;;;;;;23.50;7.10;;;;;;;12.95;33.10;99154.98;1678933;84;25443;-68
2022/03/30 10:09:00;;;;;;;18.15;8.48;;;;;;;12.49;33.77;99160.85;1678825;84;25720;-70
2022/03/30 10:11:29;;;;;;;17.98;8.00;;;;;;;12.05;34.38;99157.38;1678758;85;25685;-68
2022/03/30 10:13:59;;;;;;;17.07;7.90;;;;;;;11.83;35.18;99158.69;1678954;85;28041;-68
2022/03/30 10:16:27;;;;;;;21.93;7.42;;;;;;;11.78;36.00;99159.17;1678802;85;25453;-69
2022/03/30 10:18:56;;;;;;;16.05;7.25;;;;;;;12.06;36.18;99149.48;1678791;84;25408;-68
2022/03/30 10:21:34;;;;;;;12.75;6.90;;;;;;;13.03;35.89;99145.87;1678920;85;27650;-68
2022/03/30 10:24:30;;;;;;;12.15;6.35;;;;;;;13.86;34.27;99140.84;1678832;84;25665;-69
2022/03/30 10:27:30;;;;;;;23.87;7.12;;;;;;;13.75;32.24;99154.78;1677689;84;27682;-69
2022/03/30 10:30:02;;;;;;;15.98;7.60;;;;;;;13.40;34.07;99153.70;1678733;85;25476;-68
2022/03/30 10:32:36;;;;;;;14.33;7.67;;;;;;;13.72;34.84;99146.77;1678844;85;25838;-68
2022/03/30 10:35:12;;;;;;;21.23;8.35;;;;;;;14.57;34.79;99148.14;1678932;85;25477;-68
2022/03/30 10:37:46;;;;;;;15.20;8.13;;;;;;;15.11;34.08;99149.56;1704639;82;25424;-68
2022/03/30 10:40:26;;;;;;;16.73;7.17;;;;;;;15.15;33.25;99144.17;1705624;82;27455;-67
2022/03/30 10:42:58;;;;;;;17.60;7.53;;;;;;;14.93;33.28;99140.56;1735987;82;25452;-68
2022/03/30 10:45:46;;;;;;;19.52;7.50;;;;;;;15.74;33.53;99139.09;1713184;82;25655;-68
2022/03/30 10:48:34;;;;;;;22.93;10.35;;;;;;;16.86;32.87;99145.09;1736384;82;25457;-68
2022/03/30 10:51:18;;;;;;;17.70;7.05;;;;;;;18.00;31.89;99149.01;1736108;82;25704;-68
2022/03/30 10:53:51;;;;;;;14.53;6.67;;;;;;;18.16;30.97;99139.06;1736134;82;27461;-69
2022/03/30 10:56:26;;;;;;;16.05;7.42;;;;;;;17.80;30.49;99139.54;1736064;82;25698;-68
2022/03/30 10:59:01;;;;;;;14.18;6.50;;;;;;;17.36;29.91;99135.23;1736130;82;25699;-68
2022/03/30 11:01:31;;;;;;;10.55;6.25;;;;;;;16.82;30.37;99142.28;1736225;82;26320;-68
2022/03/30 11:04:18;;;;;;;12.58;6.72;;;;;;;16.29;30.29;99142.63;1736217;82;25732;-69
2022/03/30 11:07:01;;;;;;;16.30;6.22;;;;;;;15.76;30.77;99135.45;1736085;82;27536;-68
2022/03/30 11:09:33;;;;;;;15.55;6.05;;;;;;;15.41;31.13;99135.98;1708182;84;25929;-68
2022/03/30 11:12:14;;;;;;;12.80;6.47;;;;;;;15.16;31.56;99138.36;1708212;84;25601;-68
2022/03/30 11:14:59;;;;;;;17.55;6.47;;;;;;;14.96;31.59;99146.42;1708020;84;26272;-69
2022/03/30 11:17:40;;;;;;;17.85;7.05;;;;;;;14.72;31.77;99142.36;1708213;84;25682;-67
2022/03/30 11:20:09;;;;;;;13.95;6.67;;;;;;;14.47;31.73;99143.31;1708058;84;28082;-68
2022/03/30 11:22:42;;;;;;;16.45;7.60;;;;;;;14.18;32.13;99137.92;1708098;84;25884;-68
2022/03/30 11:25:23;;;;;;;19.70;8.80;;;;;;;13.96;32.49;99143.53;1708045;84;25782;-68
2022/03/30 11:28:08;;;;;;;23.05;8.18;;;;;;;13.84;32.85;99144.47;1708109;84;25716;-68
2022/03/30 11:30:41;;;;;;;14.78;7.30;;;;;;;13.69;32.93;99135.83;1708235;84;25713;-69
2022/03/30 11:33:24;;;;;;;13.85;7.05;;;;;;;13.56;32.90;99147.42;1708233;84;26903;-68
2022/03/30 11:35:52;;;;;;;16.57;7.03;;;;;;;13.30;33.10;99144.72;1708024;84;25656;-68
2022/03/30 11:38:37;;;;;;;15.80;7.08;;;;;;;13.26;33.57;99143.84;1701213;83;25638;-68